首页
METAR-TAF:

METAR-TAF

机场 :

拉姆施泰因空军基地, 德国

纬度: 49-26N, 经度: 007-36E, 海拔: 238米

当前天气观测

该预报发布于1小时和18分钟前的18:56 UTC
风速5节,风向西南
温度 5°C
湿度 75%
气压 1029 hPa
能见度10公里或以上
天空无云

METAR: ETAR 211856Z AUTO 22005KT 9999 CLR 05/01 A3038 RMK AO2 SLP301 T00520009 FZRANO

时间: 21:14 (20:14 UTC)

预报

该预报发布于2小时和14分钟前的18:00 UTC
预报有效从21日的 18点(UTC)到 22日的 24点(UTC)
风速9节,风向西转西南
散云层高于3000英尺
多云层高于12000英尺
成为
从 21日的 22点(UTC)到 21日的 23点(UTC)
风速10节,风向西南,有时为20节阵风
能见度10公里或以上
散云层高于2000英尺
成为
从 22日的 08点(UTC)到 22日的 09点(UTC)
风速15节,风向西转西南,有时为30节阵风
能见度10公里或以上
少量云层高于2000英尺
散云层高于12000英尺
成为
从 22日的 15点(UTC)到 22日的 16点(UTC)
风速12节,风向西转西南,有时为25节阵风
能见度10公里或以上
多云层高于3000英尺
成为
从 22日的 20点(UTC)到 22日的 21点(UTC)
风速12节,风向西转西南,有时为25节阵风
能見度: 9000
多云层高于2000英尺
小阵雨
短暂存在
从 22日的 22点(UTC)到 22日的 24点(UTC)
多云层高于1000英尺

TAF: ETAR 211800Z 2118/2224 24009KT SCT030 BKN120 QNH3036INS BECMG 2122/2123 23010G20KT 9999 SCT020 510003 QNH3029INS BECMG 2208/2209 24015G30KT 9999 FEW020 SCT120 520004 QNH3028INS BECMG 2215/2216 24012G25KT 9999 BKN030 520004 QNH3028INS BECMG 2220/2221 24012G25KT 9000 -SHRA BKN020 610809 520004 QNH3025INS TEMPO 2222/2224 BKN010 TX12/2214Z TN02/2206Z

超过4000个机场的气象观测和天气预报(METAR&TAF报告)。

可查询的气象台以黄色和红色小点在地图上表示。

将鼠标移到小点上方,可查看气象台名称。

然后点击查看天气观测和预报。

如需切换地图:点击带黑十字的绿色按钮放大地图;点击带横线的绿色按钮缩小地图;或者点击绿色箭头查看邻近地区的地图。


METAR-TAF: